createdAt,value
2023-05-22T00:00:15.533Z,20.34
2023-05-22T00:02:43.667Z,20.33
2023-05-22T00:05:14.970Z,20.27
2023-05-22T00:07:46.171Z,20.25
2023-05-22T00:10:13.136Z,20.23
2023-05-22T00:12:39.918Z,20.19
2023-05-22T00:15:07.265Z,20.15
2023-05-22T00:17:34.394Z,20.13
2023-05-22T00:20:08.079Z,20.09
2023-05-22T00:22:35.684Z,20.07
2023-05-22T00:25:07.215Z,20.03
2023-05-22T00:27:34.144Z,20.04
2023-05-22T00:30:01.506Z,20.01
2023-05-22T00:32:28.942Z,19.99
2023-05-22T00:34:55.894Z,19.94
2023-05-22T00:37:23.229Z,19.88
2023-05-22T00:39:50.058Z,19.85
2023-05-22T00:42:18.148Z,19.84
2023-05-22T00:44:44.914Z,19.80
2023-05-22T00:47:11.816Z,19.77
2023-05-22T00:49:38.580Z,19.75
2023-05-22T00:52:05.811Z,19.73
2023-05-22T00:54:32.945Z,19.64
2023-05-22T00:57:01.541Z,19.62
2023-05-22T00:59:29.565Z,19.60
2023-05-22T01:01:57.420Z,19.56
2023-05-22T01:04:25.291Z,19.50
2023-05-22T01:06:53.747Z,19.48
2023-05-22T01:09:20.759Z,19.45
2023-05-22T01:12:07.215Z,19.40
2023-05-22T01:14:44.227Z,19.35
2023-05-22T01:17:23.598Z,19.32
2023-05-22T01:20:02.083Z,19.26
2023-05-22T01:22:47.661Z,19.22
2023-05-22T01:25:17.612Z,19.19
2023-05-22T01:28:09.060Z,19.17
2023-05-22T01:31:08.217Z,19.13
2023-05-22T01:33:45.997Z,19.09
2023-05-22T01:36:20.398Z,19.05
2023-05-22T01:38:47.927Z,19.03
2023-05-22T01:41:16.249Z,18.97
2023-05-22T01:43:43.490Z,18.92
2023-05-22T01:46:10.362Z,18.89
2023-05-22T01:48:37.141Z,18.87
2023-05-22T01:51:12.082Z,18.85
2023-05-22T01:53:55.699Z,18.81
2023-05-22T01:56:57.034Z,18.77
2023-05-22T01:59:33.389Z,18.73
2023-05-22T02:02:07.770Z,18.68
2023-05-22T02:04:39.769Z,18.65
2023-05-22T02:07:07.297Z,18.60
2023-05-22T02:09:35.435Z,18.57
2023-05-22T02:12:03.047Z,18.55
2023-05-22T02:14:30.320Z,18.51
2023-05-22T02:16:58.211Z,18.48
2023-05-22T02:19:25.091Z,18.46
2023-05-22T02:21:51.939Z,18.44
2023-05-22T02:24:18.814Z,18.38
2023-05-22T02:26:45.792Z,18.38
2023-05-22T02:29:13.426Z,18.35
2023-05-22T02:31:40.467Z,18.31
2023-05-22T02:34:07.312Z,18.27
2023-05-22T02:36:34.102Z,18.25
2023-05-22T02:39:00.924Z,18.22
2023-05-22T02:41:27.741Z,18.18
2023-05-22T02:43:54.540Z,18.16
2023-05-22T02:46:21.331Z,18.15
2023-05-22T02:48:48.199Z,18.12
2023-05-22T02:51:15.055Z,18.08
2023-05-22T02:53:41.927Z,18.05
2023-05-22T02:56:10.813Z,18.01
2023-05-22T02:58:38.416Z,17.99
2023-05-22T03:01:09.186Z,17.96
2023-05-22T03:03:36.675Z,17.94
2023-05-22T03:06:04.244Z,17.91
2023-05-22T03:08:31.734Z,17.92
2023-05-22T03:10:59.736Z,17.89
2023-05-22T03:13:26.698Z,17.86
2023-05-22T03:15:53.677Z,17.82
2023-05-22T03:18:21.762Z,17.81
2023-05-22T03:20:48.629Z,17.82
2023-05-22T03:23:15.540Z,17.81
2023-05-22T03:25:42.463Z,17.79
2023-05-22T03:28:09.439Z,17.76
2023-05-22T03:30:36.201Z,17.76
2023-05-22T03:33:03.052Z,17.74
2023-05-22T03:35:29.917Z,17.72
2023-05-22T03:37:56.689Z,17.69
2023-05-22T03:40:23.460Z,17.68
2023-05-22T03:42:50.206Z,17.64
2023-05-22T03:45:17.006Z,17.64
2023-05-22T03:47:43.863Z,17.63
2023-05-22T03:50:11.081Z,17.61
2023-05-22T03:52:38.247Z,17.60
2023-05-22T03:55:06.318Z,17.58
2023-05-22T03:57:33.076Z,17.60
2023-05-22T04:00:09.815Z,17.59
2023-05-22T04:02:38.930Z,17.57
2023-05-22T04:05:09.991Z,17.58
2023-05-22T04:07:37.156Z,17.58
2023-05-22T04:10:05.198Z,17.60
2023-05-22T04:12:32.106Z,17.62
2023-05-22T04:14:58.934Z,17.64
2023-05-22T04:17:32.772Z,17.67
2023-05-22T04:20:00.665Z,17.71
2023-05-22T04:22:27.935Z,17.75
2023-05-22T04:24:54.712Z,17.76
2023-05-22T04:27:22.752Z,17.78
2023-05-22T04:29:50.530Z,17.81
2023-05-22T04:32:24.131Z,17.86
2023-05-22T04:34:51.200Z,17.89
2023-05-22T04:37:20.305Z,17.93
2023-05-22T04:39:47.439Z,17.97
2023-05-22T04:42:14.610Z,18.03
2023-05-22T04:44:42.079Z,18.06
2023-05-22T04:47:14.408Z,18.11
2023-05-22T04:49:42.615Z,18.16
2023-05-22T04:52:11.640Z,18.19
2023-05-22T04:54:43.331Z,18.24
2023-05-22T04:57:10.228Z,18.29
2023-05-22T04:59:40.117Z,18.34
2023-05-22T05:02:07.200Z,18.38
2023-05-22T05:04:34.533Z,18.42
2023-05-22T05:07:02.489Z,18.47
2023-05-22T05:09:29.598Z,18.53
2023-05-22T05:11:56.469Z,18.57
2023-05-22T05:14:23.260Z,18.61
2023-05-22T05:16:51.877Z,18.66
2023-05-22T05:19:21.521Z,18.73
2023-05-22T05:21:49.431Z,18.78
2023-05-22T05:24:19.520Z,18.83
2023-05-22T05:26:46.333Z,18.88
2023-05-22T05:29:13.791Z,18.92
2023-05-22T05:31:40.828Z,18.98
2023-05-22T05:34:07.765Z,19.04
2023-05-22T05:36:34.719Z,19.09
2023-05-22T05:39:01.649Z,19.15
2023-05-22T05:41:28.466Z,19.21
2023-05-22T05:43:57.543Z,19.27
2023-05-22T05:46:24.442Z,19.32
2023-05-22T05:48:52.336Z,19.39
2023-05-22T05:51:20.359Z,19.44
2023-05-22T05:53:47.129Z,19.49
2023-05-22T05:56:13.967Z,19.55
2023-05-22T05:58:40.724Z,19.60
2023-05-22T06:01:07.676Z,19.68
2023-05-22T06:03:34.962Z,19.72
2023-05-22T06:06:03.550Z,19.79
2023-05-22T06:08:32.300Z,19.85
2023-05-22T06:10:59.202Z,19.88
2023-05-22T06:13:26.006Z,19.96
2023-05-22T06:15:52.855Z,20.01
2023-05-22T06:18:19.656Z,20.07
2023-05-22T06:20:46.586Z,20.12
2023-05-22T06:23:13.424Z,20.18
2023-05-22T06:25:40.197Z,20.23
2023-05-22T06:28:06.970Z,20.29
2023-05-22T06:30:43.430Z,20.36
2023-05-22T06:33:10.478Z,20.43
2023-05-22T06:35:37.373Z,20.50
2023-05-22T06:38:04.208Z,20.57
2023-05-22T06:40:31.108Z,20.64
2023-05-22T06:42:59.343Z,20.69
2023-05-22T06:45:26.083Z,20.76
2023-05-22T06:47:54.232Z,20.85
2023-05-22T06:50:22.194Z,20.91
2023-05-22T06:52:49.429Z,20.97
2023-05-22T06:55:16.696Z,21.03
2023-05-22T06:57:43.510Z,21.09
2023-05-22T07:00:12.914Z,21.15
2023-05-22T07:02:40.185Z,21.21
2023-05-22T07:05:07.625Z,21.29
2023-05-22T07:07:34.731Z,21.37
2023-05-22T07:10:01.558Z,21.44
2023-05-22T07:12:29.738Z,21.51
2023-05-22T07:14:57.888Z,21.58
2023-05-22T07:17:24.804Z,21.66
2023-05-22T07:19:51.718Z,21.74
2023-05-22T07:22:18.448Z,21.82
2023-05-22T07:24:46.415Z,21.91
2023-05-22T07:27:13.583Z,21.99
2023-05-22T07:29:40.383Z,22.07
2023-05-22T07:32:08.441Z,22.14
2023-05-22T07:34:35.275Z,22.24
2023-05-22T07:37:08.995Z,22.32
2023-05-22T07:39:35.784Z,22.41
2023-05-22T07:42:03.174Z,22.49
2023-05-22T07:44:30.050Z,22.56
2023-05-22T07:46:57.631Z,22.64
2023-05-22T07:49:25.418Z,22.73
2023-05-22T07:51:52.680Z,22.80
2023-05-22T07:54:19.518Z,22.88
2023-05-22T07:56:46.315Z,22.97
2023-05-22T07:59:13.509Z,23.04
2023-05-22T08:01:41.851Z,23.14
2023-05-22T08:04:09.061Z,23.22
2023-05-22T08:06:36.267Z,23.31
2023-05-22T08:09:04.916Z,23.40
2023-05-22T08:11:31.848Z,23.49
2023-05-22T08:13:58.623Z,23.59
2023-05-22T08:16:26.076Z,23.70
2023-05-22T08:18:53.073Z,23.79
2023-05-22T08:21:19.810Z,23.89
2023-05-22T08:23:46.615Z,23.99
2023-05-22T08:26:14.651Z,24.07
2023-05-22T08:28:44.275Z,24.15
2023-05-22T08:31:12.233Z,24.24
2023-05-22T08:33:39.836Z,24.31
2023-05-22T08:36:06.938Z,24.40
2023-05-22T08:38:34.092Z,24.45
2023-05-22T08:41:01.321Z,24.52
2023-05-22T08:43:28.717Z,24.58
2023-05-22T08:46:06.206Z,24.65
2023-05-22T08:48:33.493Z,24.73
2023-05-22T08:51:05.924Z,24.78
2023-05-22T08:53:37.263Z,24.87
2023-05-22T08:56:06.854Z,24.95
2023-05-22T08:58:36.151Z,25.04
2023-05-22T09:01:04.533Z,25.11
2023-05-22T09:03:32.938Z,25.17
2023-05-22T09:06:01.282Z,25.25
2023-05-22T09:08:29.058Z,25.33
2023-05-22T09:10:56.487Z,25.41
2023-05-22T09:13:31.041Z,25.48
2023-05-22T09:16:10.010Z,25.57
2023-05-22T09:18:41.278Z,25.67
2023-05-22T09:21:21.670Z,25.77
2023-05-22T09:24:01.280Z,25.87
2023-05-22T09:26:32.976Z,25.98
2023-05-22T09:29:00.242Z,26.10
2023-05-22T09:31:29.418Z,26.19
2023-05-22T09:33:56.472Z,26.28
2023-05-22T09:36:31.303Z,26.36
2023-05-22T09:39:00.606Z,26.46
2023-05-22T09:41:30.567Z,26.55
2023-05-22T09:43:58.682Z,26.66
2023-05-22T09:46:26.657Z,26.74
2023-05-22T09:48:54.251Z,26.84
2023-05-22T09:51:26.637Z,26.91
2023-05-22T09:54:03.464Z,27.00
2023-05-22T09:56:39.302Z,27.09
2023-05-22T09:59:09.533Z,27.20
2023-05-22T10:01:38.993Z,27.29
2023-05-22T10:04:10.392Z,27.38
2023-05-22T10:06:38.445Z,27.45
2023-05-22T10:09:10.669Z,27.53
2023-05-22T10:11:38.248Z,27.62
2023-05-22T10:14:05.494Z,27.70
2023-05-22T10:16:36.510Z,27.80
2023-05-22T10:19:03.597Z,27.91
2023-05-22T10:21:32.102Z,28.02
2023-05-22T10:24:02.170Z,28.13
2023-05-22T10:26:30.181Z,28.21
2023-05-22T10:29:02.887Z,28.27
2023-05-22T10:31:42.306Z,28.34
2023-05-22T10:34:13.070Z,28.43
2023-05-22T10:37:13.145Z,28.53
2023-05-22T10:40:02.070Z,28.64
2023-05-22T10:42:32.355Z,28.78
2023-05-22T10:45:03.860Z,28.86
2023-05-22T10:47:33.497Z,28.96
2023-05-22T10:50:11.533Z,29.04
2023-05-22T10:52:40.238Z,29.12
2023-05-22T10:55:11.232Z,29.21
2023-05-22T10:57:39.797Z,29.29
2023-05-22T11:00:12.477Z,29.36
2023-05-22T11:02:44.704Z,29.43
2023-05-22T11:05:25.751Z,29.52
2023-05-22T11:07:52.583Z,29.59
2023-05-22T11:10:51.901Z,29.66
2023-05-22T11:13:18.844Z,29.74
2023-05-22T11:15:46.828Z,29.82
2023-05-22T11:18:16.864Z,29.86
2023-05-22T11:20:44.461Z,29.94
2023-05-22T11:23:11.666Z,30.02
2023-05-22T11:25:41.264Z,30.11
2023-05-22T11:28:10.489Z,30.18
2023-05-22T11:30:38.176Z,30.23
2023-05-22T11:33:06.639Z,30.30
2023-05-22T11:35:34.060Z,30.35
2023-05-22T11:38:05.239Z,30.42
2023-05-22T11:40:32.099Z,30.50
2023-05-22T11:42:58.956Z,30.58
2023-05-22T11:45:26.995Z,30.64
2023-05-22T11:47:53.920Z,30.71
2023-05-22T11:50:33.454Z,30.78
2023-05-22T11:53:08.316Z,30.87
2023-05-22T11:55:35.737Z,30.94
2023-05-22T11:58:02.918Z,31.01
2023-05-22T12:00:31.793Z,31.08
2023-05-22T12:02:59.002Z,31.15
2023-05-22T12:05:25.988Z,31.21
2023-05-22T12:07:53.048Z,31.28
2023-05-22T12:10:20.021Z,31.36
2023-05-22T12:12:48.162Z,31.43
2023-05-22T12:15:20.242Z,31.53
2023-05-22T12:17:47.149Z,31.57
2023-05-22T12:20:17.196Z,31.62
2023-05-22T12:22:44.218Z,31.66
2023-05-22T12:25:17.627Z,31.71
2023-05-22T12:27:47.834Z,31.74
2023-05-22T12:30:15.943Z,31.77
2023-05-22T12:32:50.749Z,31.82
2023-05-22T12:35:18.659Z,31.87
2023-05-22T12:37:49.872Z,31.91
2023-05-22T12:40:16.768Z,31.96
2023-05-22T12:42:45.054Z,32.00
2023-05-22T12:45:13.349Z,32.05
2023-05-22T12:47:40.257Z,32.11
2023-05-22T12:50:07.949Z,32.16
2023-05-22T12:52:35.960Z,32.18
2023-05-22T12:55:02.809Z,32.22
2023-05-22T12:57:29.594Z,32.28
2023-05-22T12:59:56.383Z,32.37
2023-05-22T13:02:23.177Z,32.41
2023-05-22T13:04:49.991Z,32.43
2023-05-22T13:07:16.796Z,32.46
2023-05-22T13:09:43.592Z,32.50
2023-05-22T13:12:11.272Z,32.54
2023-05-22T13:14:40.463Z,32.58
2023-05-22T13:17:07.575Z,32.61
2023-05-22T13:19:34.653Z,32.66
2023-05-22T13:22:01.640Z,32.69
2023-05-22T13:24:28.450Z,32.72
2023-05-22T13:26:55.378Z,32.75
2023-05-22T13:29:22.117Z,32.78
2023-05-22T13:31:48.954Z,32.81
2023-05-22T13:34:16.093Z,32.84
2023-05-22T13:36:43.090Z,32.87
2023-05-22T13:39:09.936Z,32.91
2023-05-22T13:41:36.733Z,32.92
2023-05-22T13:44:03.600Z,32.96
2023-05-22T13:46:30.420Z,33.01
2023-05-22T13:48:57.173Z,33.05
2023-05-22T13:51:24.119Z,33.06
2023-05-22T13:53:50.921Z,33.06
2023-05-22T13:56:17.699Z,33.06
2023-05-22T13:58:44.499Z,33.07
2023-05-22T14:01:11.255Z,33.09
2023-05-22T14:03:38.409Z,33.12
2023-05-22T14:06:05.859Z,33.13
2023-05-22T14:08:33.001Z,33.14
2023-05-22T14:11:00.169Z,33.17
2023-05-22T14:13:26.935Z,33.19
2023-05-22T14:15:53.714Z,33.20
2023-05-22T14:18:20.572Z,33.22
2023-05-22T14:20:47.410Z,33.24
2023-05-22T14:23:14.987Z,33.27
2023-05-22T14:25:43.115Z,33.30
2023-05-22T14:28:13.948Z,33.32
2023-05-22T14:30:40.998Z,33.34
2023-05-22T14:33:08.370Z,33.37
2023-05-22T14:35:35.384Z,33.39
2023-05-22T14:38:02.259Z,33.43
2023-05-22T14:40:29.089Z,33.46
2023-05-22T14:42:55.932Z,33.49
2023-05-22T14:45:22.806Z,33.51
2023-05-22T14:47:49.857Z,33.52
2023-05-22T14:50:20.349Z,33.52
2023-05-22T14:52:49.253Z,33.53
2023-05-22T14:55:16.947Z,33.52
2023-05-22T14:57:43.922Z,33.52
2023-05-22T15:00:12.178Z,33.51
2023-05-22T15:02:39.427Z,33.52
2023-05-22T15:05:07.366Z,33.51
2023-05-22T15:10:05.501Z,33.50
2023-05-22T15:12:32.645Z,33.49
2023-05-22T15:14:59.446Z,33.49
2023-05-22T15:17:26.388Z,33.48
2023-05-22T15:19:53.179Z,33.46
2023-05-22T15:22:20.334Z,33.45
2023-05-22T15:24:48.256Z,33.44
2023-05-22T15:27:15.059Z,33.42
2023-05-22T15:29:42.002Z,33.42
2023-05-22T15:32:09.231Z,33.40
2023-05-22T15:34:36.112Z,33.37
2023-05-22T15:37:02.964Z,33.36
2023-05-22T15:39:29.772Z,33.37
2023-05-22T15:42:05.847Z,33.32
2023-05-22T15:44:33.473Z,33.27
2023-05-22T15:47:00.406Z,33.24
2023-05-22T15:49:30.207Z,33.20
2023-05-22T15:51:58.347Z,33.15
2023-05-22T15:54:25.278Z,33.10
2023-05-22T15:56:52.128Z,33.03
2023-05-22T15:59:18.914Z,32.94
2023-05-22T16:01:45.884Z,32.87
2023-05-22T16:04:12.763Z,32.79
2023-05-22T16:06:39.554Z,32.69
2023-05-22T16:09:06.385Z,32.57
2023-05-22T16:11:33.631Z,32.44
2023-05-22T16:14:00.468Z,32.30
2023-05-22T16:16:27.253Z,32.18
2023-05-22T16:18:54.134Z,32.06
2023-05-22T16:21:21.021Z,31.92
2023-05-22T16:23:47.820Z,31.80
2023-05-22T16:26:15.029Z,31.66
2023-05-22T16:28:41.805Z,31.54
2023-05-22T16:31:08.633Z,31.41
2023-05-22T16:33:37.487Z,31.30
2023-05-22T16:36:04.675Z,31.20
2023-05-22T16:38:31.523Z,31.08
2023-05-22T16:40:58.775Z,30.95
2023-05-22T16:43:25.648Z,30.84
2023-05-22T16:45:52.419Z,30.73
2023-05-22T16:48:19.437Z,30.60
2023-05-22T16:50:46.807Z,30.47
2023-05-22T16:55:45.649Z,30.77
2023-05-22T16:58:14.174Z,30.77
2023-05-22T17:00:41.483Z,30.14
2023-05-22T17:03:09.939Z,30.06
2023-05-22T17:05:37.911Z,29.94
2023-05-22T17:08:05.149Z,29.87
2023-05-22T17:10:32.134Z,29.84
2023-05-22T17:12:59.016Z,29.78
2023-05-22T17:15:25.953Z,29.74
2023-05-22T17:17:52.990Z,29.73
2023-05-22T17:20:23.174Z,29.70
2023-05-22T17:22:50.854Z,29.67
2023-05-22T17:26:05.993Z,29.62
2023-05-22T17:28:33.500Z,29.59
2023-05-22T17:31:00.876Z,29.56
2023-05-22T17:33:27.936Z,29.53
2023-05-22T17:35:54.919Z,29.50
2023-05-22T17:38:22.143Z,29.46
2023-05-22T17:40:49.467Z,29.43
2023-05-22T17:43:19.057Z,29.38
2023-05-22T17:45:54.832Z,29.33
2023-05-22T17:48:23.785Z,29.26
2023-05-22T17:50:52.161Z,29.21
2023-05-22T17:53:22.528Z,29.15
2023-05-22T17:55:51.037Z,29.09
2023-05-22T17:58:19.619Z,29.03
2023-05-22T18:00:48.808Z,28.96
2023-05-22T18:03:22.896Z,28.92
2023-05-22T18:05:50.779Z,28.86
2023-05-22T18:08:19.179Z,28.81
2023-05-22T18:10:46.110Z,28.74
2023-05-22T18:13:13.261Z,28.69
2023-05-22T18:15:40.792Z,28.62
2023-05-22T18:18:07.994Z,28.55
2023-05-22T18:20:35.154Z,28.47
2023-05-22T18:23:02.092Z,28.38
2023-05-22T18:25:29.536Z,28.30
2023-05-22T18:27:57.098Z,28.22
2023-05-22T18:30:24.659Z,28.15
2023-05-22T18:32:51.890Z,28.07
2023-05-22T18:35:18.982Z,28.00
2023-05-22T18:37:46.455Z,27.93
2023-05-22T18:40:13.681Z,27.84
2023-05-22T18:42:40.961Z,27.76
2023-05-22T18:45:08.683Z,27.68
2023-05-22T18:47:35.710Z,27.60
2023-05-22T18:50:04.490Z,27.51
2023-05-22T18:52:31.670Z,27.42
2023-05-22T18:54:58.565Z,27.34
2023-05-22T18:57:25.737Z,27.27
2023-05-22T18:59:53.508Z,27.18
2023-05-22T19:02:22.084Z,27.07
2023-05-22T19:04:51.233Z,27.02
2023-05-22T19:07:21.928Z,26.93
2023-05-22T19:09:49.818Z,26.88
2023-05-22T19:12:17.774Z,26.79
2023-05-22T19:14:48.370Z,26.70
2023-05-22T19:17:16.442Z,26.63
2023-05-22T19:19:44.217Z,26.54
2023-05-22T19:22:12.410Z,26.47
2023-05-22T19:24:40.354Z,26.37
2023-05-22T19:27:08.091Z,26.29
2023-05-22T19:29:35.252Z,26.19
2023-05-22T19:32:04.244Z,26.11
2023-05-22T19:38:04.520Z,25.97
2023-05-22T19:40:55.295Z,25.87
2023-05-22T19:43:23.277Z,25.79
2023-05-22T19:45:50.972Z,25.73
2023-05-22T19:48:23.253Z,25.66
2023-05-22T19:51:00.101Z,25.59
2023-05-22T19:53:27.918Z,25.47
2023-05-22T19:55:57.199Z,25.39
2023-05-22T19:58:33.540Z,25.36
2023-05-22T20:01:09.993Z,25.30
2023-05-22T20:03:46.687Z,25.24
2023-05-22T20:06:33.189Z,25.18
2023-05-22T20:09:01.923Z,25.09
2023-05-22T20:11:38.442Z,25.04
2023-05-22T20:14:07.734Z,24.99
2023-05-22T20:16:38.222Z,24.93
2023-05-22T20:19:17.628Z,24.87
2023-05-22T20:21:49.029Z,24.76
2023-05-22T20:24:18.996Z,24.69
2023-05-22T20:26:45.903Z,24.64
2023-05-22T20:29:15.971Z,24.58
2023-05-22T20:31:43.077Z,24.51
2023-05-22T20:34:10.101Z,24.45
2023-05-22T20:36:37.123Z,24.37
2023-05-22T20:39:05.883Z,24.30
2023-05-22T20:41:35.800Z,24.29
2023-05-22T20:44:02.780Z,24.20
2023-05-22T20:46:29.821Z,24.13
2023-05-22T20:48:58.440Z,24.09
2023-05-22T20:51:32.742Z,24.02
2023-05-22T20:54:00.061Z,23.95
2023-05-22T20:56:27.547Z,23.92
2023-05-22T20:58:57.272Z,23.85
2023-05-22T21:01:25.096Z,23.80
2023-05-22T21:03:56.489Z,23.73
2023-05-22T21:06:23.619Z,23.69
2023-05-22T21:08:52.514Z,23.63
2023-05-22T21:11:21.029Z,23.56
2023-05-22T21:13:47.892Z,23.50
2023-05-22T21:16:14.731Z,23.45
2023-05-22T21:18:41.537Z,23.38
2023-05-22T21:21:08.349Z,23.31
2023-05-22T21:23:35.240Z,23.25
2023-05-22T21:26:02.684Z,23.20
2023-05-22T21:28:29.611Z,23.12
2023-05-22T21:30:56.529Z,23.08
2023-05-22T21:33:23.378Z,23.03
2023-05-22T21:35:50.202Z,22.98
2023-05-22T21:38:17.056Z,22.93
2023-05-22T21:40:44.023Z,22.86
2023-05-22T21:43:10.874Z,22.81
2023-05-22T21:45:38.931Z,22.78
2023-05-22T21:48:05.918Z,22.74
2023-05-22T21:50:32.924Z,22.66
2023-05-22T21:52:59.762Z,22.63
2023-05-22T21:55:26.583Z,22.55
2023-05-22T21:57:53.411Z,22.52
2023-05-22T22:00:20.213Z,22.47
2023-05-22T22:02:47.254Z,22.42
2023-05-22T22:05:14.204Z,22.36
2023-05-22T22:07:41.217Z,22.31
2023-05-22T22:10:08.295Z,22.27
2023-05-22T22:12:35.250Z,22.21
2023-05-22T22:15:02.488Z,22.17
2023-05-22T22:17:30.192Z,22.12
2023-05-22T22:19:57.704Z,22.09
2023-05-22T22:22:25.064Z,22.04
2023-05-22T22:24:51.979Z,21.99
2023-05-22T22:27:19.821Z,21.95
2023-05-22T22:29:49.602Z,21.90
2023-05-22T22:32:17.432Z,21.84
2023-05-22T22:34:45.432Z,21.81
2023-05-22T22:37:14.017Z,21.78
2023-05-22T22:39:41.019Z,21.72
2023-05-22T22:42:08.038Z,21.67
2023-05-22T22:44:34.974Z,21.64
2023-05-22T22:47:02.302Z,21.58
2023-05-22T22:49:29.320Z,21.53
2023-05-22T22:51:56.605Z,21.47
2023-05-22T22:54:24.233Z,21.43
2023-05-22T22:56:51.570Z,21.38
2023-05-22T22:59:18.487Z,21.35
2023-05-22T23:01:45.559Z,21.32
2023-05-22T23:04:13.687Z,21.26
2023-05-22T23:06:43.253Z,21.22
2023-05-22T23:09:11.216Z,21.18
2023-05-22T23:11:38.839Z,21.14
2023-05-22T23:14:07.752Z,21.10
2023-05-22T23:16:36.466Z,21.08
2023-05-22T23:19:07.478Z,21.02
2023-05-22T23:21:35.359Z,20.98
2023-05-22T23:24:06.708Z,20.93
2023-05-22T23:26:34.032Z,20.88
2023-05-22T23:29:01.374Z,20.86
2023-05-22T23:31:30.621Z,20.83
2023-05-22T23:33:58.243Z,20.79
2023-05-22T23:36:25.700Z,20.75
2023-05-22T23:38:52.481Z,20.74
2023-05-22T23:41:19.285Z,20.68
2023-05-22T23:43:46.654Z,20.64
2023-05-22T23:46:14.234Z,20.61
2023-05-22T23:48:42.334Z,20.56
2023-05-22T23:51:09.861Z,20.50
2023-05-22T23:53:37.104Z,20.46
2023-05-22T23:56:04.859Z,20.43
2023-05-22T23:58:32.254Z,20.38
